Time;durP1;ratioP1;P1;durP2;ratioP2;P2;SDS_P1;SDS_P2;PMS_P1;PMS_P2;Temp;Humidity;BMP_temperature;BMP_pressure;BME280_temperature;BME280_humidity;BME280_pressure;Samples;Min_cycle;Max_cycle;Signal;HPM_P1;HPM_P2
2023/03/18 00:00:43;;;;;;;2.28;1.70;;;;;;;20.35;36.67;100689.94;5053020;28;20064;-65
2023/03/18 00:03:10;;;;;;;2.20;1.90;;;;;;;20.31;36.76;100697.41;5044039;28;20519;-66
2023/03/18 00:05:35;;;;;;;2.00;1.80;;;;;;;20.26;36.61;100683.91;5046200;28;20106;-66
2023/03/18 00:08:03;;;;;;;2.63;1.80;;;;;;;20.32;36.51;100691.13;5052483;28;20033;-65
2023/03/18 00:10:29;;;;;;;2.10;1.90;;;;;;;20.30;36.74;100695.78;5048455;28;20041;-65
2023/03/18 00:12:55;;;;;;;2.03;1.73;;;;;;;20.32;36.70;100699.06;5047878;28;20048;-65
2023/03/18 00:15:21;;;;;;;2.22;1.90;;;;;;;20.32;36.74;100699.06;5044346;28;20392;-65
2023/03/18 00:17:47;;;;;;;2.03;1.80;;;;;;;20.26;36.73;100696.31;5040661;28;20645;-65
2023/03/18 00:20:15;;;;;;;2.90;1.85;;;;;;;20.27;36.75;100701.41;5046307;28;20040;-65
2023/03/18 00:22:42;;;;;;;1.63;1.52;;;;;;;20.24;36.76;100693.84;5044520;28;20037;-66
2023/03/18 00:25:09;;;;;;;1.50;1.40;;;;;;;20.24;36.89;100704.44;5041923;28;20045;-66
2023/03/18 00:27:36;;;;;;;2.92;1.88;;;;;;;20.20;36.85;100708.47;5049885;28;20041;-66
2023/03/18 00:30:04;;;;;;;2.00;1.90;;;;;;;20.22;36.86;100706.44;5050030;28;20116;-66
2023/03/18 00:32:30;;;;;;;1.58;1.48;;;;;;;20.27;36.66;100714.63;5041943;28;20044;-66
2023/03/18 00:34:56;;;;;;;1.67;1.58;;;;;;;20.21;36.87;100716.19;5042137;28;20547;-65
2023/03/18 00:37:29;;;;;;;1.90;1.75;;;;;;;20.14;37.06;100717.13;5042100;28;20025;-66
2023/03/18 00:40:03;;;;;;;2.13;1.80;;;;;;;20.27;36.84;100719.91;5039806;28;20040;-65
2023/03/18 00:42:35;;;;;;;1.80;1.70;;;;;;;20.14;36.97;100715.31;5039013;28;20036;-66
2023/03/18 00:45:03;;;;;;;1.50;1.40;;;;;;;20.19;36.86;100718.22;5041731;28;20041;-66
2023/03/18 00:47:29;;;;;;;2.10;1.65;;;;;;;20.22;36.85;100723.13;5042301;28;20028;-65
2023/03/18 00:49:55;;;;;;;2.13;1.85;;;;;;;20.11;36.93;100722.78;5041280;28;20129;-66
2023/03/18 00:52:21;;;;;;;2.35;1.95;;;;;;;20.15;36.87;100713.47;5040783;28;20049;-65
2023/03/18 00:54:47;;;;;;;2.42;2.00;;;;;;;20.20;36.89;100717.22;5039976;28;20045;-65
2023/03/18 00:57:13;;;;;;;2.33;1.80;;;;;;;20.18;36.93;100721.03;5043340;28;20045;-65
2023/03/18 00:59:39;;;;;;;2.05;1.73;;;;;;;20.18;36.94;100713.13;5044885;28;20615;-66
2023/03/18 01:02:05;;;;;;;1.80;1.63;;;;;;;20.20;36.80;100714.56;5039829;28;20100;-66
2023/03/18 01:04:31;;;;;;;2.20;1.65;;;;;;;20.13;36.81;100697.00;5035300;28;22996;-65
2023/03/18 01:06:57;;;;;;;1.65;1.55;;;;;;;20.20;36.79;100711.91;5043045;28;20106;-65
2023/03/18 01:09:22;;;;;;;2.42;1.85;;;;;;;20.12;36.86;100708.56;5039784;28;20042;-65
2023/03/18 01:11:48;;;;;;;2.28;1.80;;;;;;;20.11;36.88;100713.03;5038264;28;20052;-65
2023/03/18 01:14:13;;;;;;;2.10;1.90;;;;;;;20.12;36.83;100708.56;5036505;28;20125;-66
2023/03/18 01:16:39;;;;;;;2.05;1.80;;;;;;;20.13;36.68;100721.59;5040394;28;20719;-65
2023/03/18 01:19:05;;;;;;;1.95;1.70;;;;;;;20.10;37.00;100718.47;5034504;28;20037;-66
2023/03/18 01:21:31;;;;;;;2.25;1.77;;;;;;;20.10;36.92;100719.31;5042398;28;20049;-66
2023/03/18 01:23:59;;;;;;;2.08;1.52;;;;;;;20.07;36.99;100716.22;5037429;28;20032;-65
2023/03/18 01:26:26;;;;;;;1.90;1.60;;;;;;;20.10;36.82;100714.00;5036545;28;20037;-66
2023/03/18 01:28:53;;;;;;;2.22;1.88;;;;;;;20.09;36.94;100717.66;5044116;28;20045;-66
2023/03/18 01:31:19;;;;;;;1.75;1.60;;;;;;;20.13;36.82;100704.91;5036227;28;21289;-66
2023/03/18 01:33:46;;;;;;;2.42;1.90;;;;;;;20.10;36.92;100721.13;5034890;28;20029;-66
2023/03/18 01:36:12;;;;;;;2.38;1.70;;;;;;;20.07;36.91;100717.03;5036156;28;20612;-65
2023/03/18 01:38:39;;;;;;;1.80;1.70;;;;;;;20.00;37.10;100717.97;5038340;28;20044;-65
2023/03/18 01:41:11;;;;;;;1.70;1.60;;;;;;;20.08;36.88;100725.78;5059031;28;20034;-65
2023/03/18 01:43:39;;;;;;;2.17;1.90;;;;;;;20.09;36.88;100727.41;5042208;28;20263;-65
2023/03/18 01:46:35;;;;;;;2.63;1.58;;;;;;;20.03;37.02;100723.69;5035676;28;20685;-66
2023/03/18 01:49:09;;;;;;;2.03;1.70;;;;;;;20.08;37.11;100731.06;5031325;28;20044;-65
2023/03/18 01:51:36;;;;;;;1.92;1.73;;;;;;;20.04;36.86;100735.91;5039786;28;20048;-66
2023/03/18 01:54:04;;;;;;;1.67;1.52;;;;;;;19.97;37.07;100726.25;5038434;28;20035;-66
2023/03/18 01:56:30;;;;;;;2.20;2.00;;;;;;;20.04;36.97;100743.00;5041344;28;20375;-65
2023/03/18 01:58:58;;;;;;;2.10;1.90;;;;;;;20.07;36.93;100742.66;5043725;28;20064;-66
2023/03/18 02:01:30;;;;;;;1.58;1.45;;;;;;;19.99;37.07;100753.31;5047953;28;20039;-66
2023/03/18 02:04:01;;;;;;;2.17;1.98;;;;;;;19.98;37.07;100749.03;5043313;28;20036;-66
2023/03/18 02:06:26;;;;;;;1.83;1.70;;;;;;;20.01;36.92;100749.50;5046197;28;20026;-65
2023/03/18 02:08:59;;;;;;;1.80;1.70;;;;;;;20.02;37.19;100760.88;5044929;28;20051;-65
2023/03/18 02:11:25;;;;;;;1.77;1.67;;;;;;;20.04;37.01;100757.06;5034068;28;20053;-65
2023/03/18 02:13:55;;;;;;;2.20;1.83;;;;;;;20.01;36.98;100749.50;5074773;28;20061;-65
2023/03/18 02:16:26;;;;;;;2.00;1.80;;;;;;;20.00;37.06;100754.97;5035160;28;20044;-66
2023/03/18 02:18:58;;;;;;;2.55;2.00;;;;;;;20.03;36.81;100757.25;5043272;28;20789;-65
2023/03/18 02:21:52;;;;;;;1.70;1.60;;;;;;;19.97;36.94;100756.16;5034838;28;20064;-65
2023/03/18 02:24:30;;;;;;;2.00;1.60;;;;;;;20.00;36.89;100755.78;5047829;28;20040;-66
2023/03/18 02:27:13;;;;;;;2.33;2.00;;;;;;;19.98;37.06;100757.78;5042450;28;20026;-66
2023/03/18 02:29:42;;;;;;;1.92;1.75;;;;;;;20.01;36.87;100751.31;5046282;28;20087;-65
2023/03/18 02:32:14;;;;;;;2.85;1.80;;;;;;;19.99;36.88;100745.41;5039734;28;20060;-66
2023/03/18 02:34:42;;;;;;;1.67;1.58;;;;;;;19.94;37.02;100743.31;5045924;28;20063;-65
2023/03/18 02:37:08;;;;;;;1.83;1.73;;;;;;;19.94;36.98;100742.50;5037160;28;20399;-66
2023/03/18 02:39:36;;;;;;;2.35;1.90;;;;;;;19.91;36.99;100756.84;5042146;28;20029;-65
2023/03/18 02:42:03;;;;;;;1.80;1.60;;;;;;;19.95;36.93;100754.69;5051504;28;20536;-66
2023/03/18 02:44:29;;;;;;;2.00;1.80;;;;;;;19.95;36.92;100762.63;5027653;28;20052;-66
2023/03/18 02:47:25;;;;;;;2.03;1.83;;;;;;;19.91;36.99;100748.94;5038464;28;20057;-65
2023/03/18 02:49:51;;;;;;;2.03;1.85;;;;;;;19.89;37.06;100759.69;5038788;28;20025;-66
2023/03/18 02:52:17;;;;;;;2.40;2.17;;;;;;;19.90;37.09;100763.16;5035914;28;20037;-65
2023/03/18 02:54:42;;;;;;;2.38;2.00;;;;;;;19.96;37.01;100759.81;5035545;28;20095;-65
2023/03/18 02:57:08;;;;;;;2.75;2.10;;;;;;;19.90;37.03;100773.72;5034452;28;20495;-65
2023/03/18 02:59:35;;;;;;;2.58;1.60;;;;;;;19.91;37.09;100776.19;5038403;28;20068;-65
2023/03/18 03:02:01;;;;;;;1.83;1.63;;;;;;;19.85;37.09;100778.72;5038607;28;20037;-65
2023/03/18 03:04:27;;;;;;;1.92;1.70;;;;;;;19.88;37.05;100781.84;5035783;28;20033;-66
2023/03/18 03:06:55;;;;;;;1.80;1.70;;;;;;;19.91;37.09;100778.81;5055561;28;20045;-66
2023/03/18 03:09:33;;;;;;;2.10;1.90;;;;;;;19.87;37.12;100780.19;5024987;28;20537;-65
2023/03/18 03:11:59;;;;;;;1.60;1.50;;;;;;;19.99;36.90;100777.13;5040330;28;20053;-65
2023/03/18 03:14:25;;;;;;;2.95;2.20;;;;;;;19.97;36.88;100779.13;5040095;28;20041;-66
2023/03/18 03:16:56;;;;;;;2.50;1.75;;;;;;;19.97;36.81;100777.31;5032414;28;20887;-66
2023/03/18 03:19:22;;;;;;;2.30;1.85;;;;;;;19.88;37.01;100784.47;5040676;28;20037;-66
2023/03/18 03:21:48;;;;;;;2.08;1.67;;;;;;;19.90;36.97;100785.13;5033472;28;20044;-65
2023/03/18 03:24:13;;;;;;;2.42;2.03;;;;;;;19.82;37.02;100781.75;5037761;28;20056;-65
2023/03/18 03:26:39;;;;;;;2.33;2.10;;;;;;;19.82;37.06;100794.97;5034821;28;20037;-66
2023/03/18 03:29:05;;;;;;;1.90;1.70;;;;;;;19.83;37.14;100792.13;5039091;28;20106;-66
2023/03/18 03:31:31;;;;;;;1.77;1.63;;;;;;;19.83;37.07;100789.50;5037953;28;20045;-65
2023/03/18 03:33:57;;;;;;;2.25;1.92;;;;;;;19.84;37.06;100790.31;5038873;28;20030;-65
2023/03/18 03:36:23;;;;;;;1.92;1.73;;;;;;;19.83;37.16;100799.25;5039800;28;20041;-65
2023/03/18 03:38:49;;;;;;;2.17;1.80;;;;;;;19.85;36.99;100800.69;5036999;28;20469;-66
2023/03/18 03:41:15;;;;;;;2.90;2.10;;;;;;;19.83;37.03;100802.69;5036490;28;20060;-65
2023/03/18 03:43:41;;;;;;;1.90;1.70;;;;;;;19.86;36.94;100804.97;5029983;28;20507;-65
2023/03/18 03:46:08;;;;;;;2.10;1.90;;;;;;;19.78;37.14;100799.78;5036178;28;20636;-65
2023/03/18 03:48:35;;;;;;;2.22;1.90;;;;;;;19.82;37.02;100813.47;5043697;28;20124;-66
2023/03/18 03:51:01;;;;;;;2.03;1.80;;;;;;;19.85;36.98;100819.19;5034674;28;20324;-66
2023/03/18 03:53:27;;;;;;;1.90;1.80;;;;;;;19.78;37.05;100813.00;5032950;28;20033;-65
2023/03/18 03:55:53;;;;;;;2.20;1.83;;;;;;;19.86;36.95;100812.91;5037791;28;20033;-65
2023/03/18 03:58:20;;;;;;;1.88;1.70;;;;;;;19.75;37.11;100808.06;5036754;28;20033;-65
2023/03/18 04:00:46;;;;;;;2.78;1.92;;;;;;;19.76;37.01;100822.94;5034473;28;20037;-65
2023/03/18 04:03:12;;;;;;;2.08;1.83;;;;;;;19.80;37.03;100826.03;5042310;28;20041;-65
2023/03/18 04:05:38;;;;;;;2.05;1.77;;;;;;;19.78;37.15;100830.69;5041255;28;20044;-65
2023/03/18 04:08:04;;;;;;;1.80;1.70;;;;;;;19.78;36.93;100828.84;5035955;28;21306;-65
2023/03/18 04:10:35;;;;;;;2.22;2.03;;;;;;;19.79;37.01;100833.13;5036914;28;20046;-65
2023/03/18 04:13:03;;;;;;;1.80;1.60;;;;;;;19.80;37.16;100836.59;5031429;28;20083;-65
2023/03/18 04:15:29;;;;;;;1.95;1.75;;;;;;;19.74;37.05;100830.19;5025528;28;20033;-66
2023/03/18 04:17:55;;;;;;;2.05;1.85;;;;;;;19.84;36.96;100838.69;5054961;28;20041;-66
2023/03/18 04:20:22;;;;;;;1.85;1.75;;;;;;;19.81;36.99;100836.41;5037332;28;20044;-66
2023/03/18 04:22:48;;;;;;;1.90;1.73;;;;;;;19.77;36.75;100839.59;5030856;28;20045;-66
2023/03/18 04:25:17;;;;;;;1.92;1.73;;;;;;;19.73;37.14;100836.47;5035581;28;20033;-65
2023/03/18 04:27:42;;;;;;;2.00;1.80;;;;;;;19.71;36.99;100832.38;5035200;28;20048;-66
2023/03/18 04:30:11;;;;;;;2.50;2.03;;;;;;;19.75;37.12;100841.56;5025669;28;20032;-65
2023/03/18 04:32:50;;;;;;;2.50;2.08;;;;;;;19.80;37.11;100844.53;5033690;28;20042;-66
2023/03/18 04:35:17;;;;;;;2.50;2.00;;;;;;;19.79;37.06;100846.34;5038584;28;20057;-65
2023/03/18 04:37:43;;;;;;;1.65;1.55;;;;;;;20.09;36.57;100844.56;5054632;28;20477;-66
2023/03/18 04:40:10;;;;;;;2.00;1.80;;;;;;;20.43;35.83;100854.63;5037752;28;20048;-65
2023/03/18 04:42:37;;;;;;;1.98;1.83;;;;;;;20.45;35.65;100849.97;5033811;28;20037;-66
2023/03/18 04:45:05;;;;;;;1.90;1.70;;;;;;;20.52;35.85;100848.25;5037879;28;20048;-66
2023/03/18 04:47:32;;;;;;;1.80;1.65;;;;;;;20.52;35.74;100858.03;5035982;28;20092;-65
2023/03/18 04:49:58;;;;;;;1.92;1.70;;;;;;;20.50;35.74;100854.75;5039836;28;20041;-65
2023/03/18 04:52:24;;;;;;;2.05;1.85;;;;;;;20.45;35.82;100862.38;5038306;28;20495;-64
2023/03/18 04:54:51;;;;;;;1.90;1.75;;;;;;;20.40;36.05;100854.16;5036045;28;20025;-66
2023/03/18 04:57:17;;;;;;;1.88;1.77;;;;;;;20.42;35.83;100866.22;5043092;28;20052;-65
2023/03/18 04:59:48;;;;;;;1.90;1.73;;;;;;;20.32;36.02;100864.84;5040489;28;20029;-65
2023/03/18 05:02:14;;;;;;;2.10;1.92;;;;;;;20.29;36.28;100867.81;5038766;28;20051;-65
2023/03/18 05:04:40;;;;;;;2.22;1.80;;;;;;;20.17;36.21;100862.19;5043677;28;20037;-65
2023/03/18 05:07:07;;;;;;;1.92;1.60;;;;;;;20.15;36.31;100861.53;5026981;28;20137;-66
2023/03/18 05:09:36;;;;;;;2.20;1.80;;;;;;;20.09;36.47;100876.28;5037601;28;20033;-66
2023/03/18 05:12:05;;;;;;;1.70;1.60;;;;;;;20.06;36.65;100867.91;5043711;28;20486;-65
2023/03/18 05:14:34;;;;;;;1.77;1.67;;;;;;;20.07;36.57;100874.81;5046520;28;20041;-65
2023/03/18 05:17:02;;;;;;;2.15;1.85;;;;;;;20.02;36.63;100871.91;5048460;28;20040;-66
2023/03/18 05:19:29;;;;;;;2.20;1.70;;;;;;;20.07;36.71;100866.88;5041930;28;20115;-66
2023/03/18 05:22:07;;;;;;;1.95;1.70;;;;;;;20.00;36.73;100879.19;5040186;28;20075;-65
2023/03/18 05:24:33;;;;;;;3.67;1.80;;;;;;;20.00;36.68;100880.00;5032453;28;20114;-65
2023/03/18 05:26:59;;;;;;;1.88;1.77;;;;;;;19.88;36.74;100881.44;5037977;28;20037;-65
2023/03/18 05:29:32;;;;;;;2.03;1.90;;;;;;;19.90;36.87;100876.78;5023045;28;20041;-65
2023/03/18 05:32:24;;;;;;;1.92;1.75;;;;;;;19.97;36.75;100880.38;5044829;28;20048;-65
2023/03/18 05:34:56;;;;;;;1.60;1.50;;;;;;;19.99;36.74;100881.00;5055432;28;20037;-65
2023/03/18 05:37:23;;;;;;;1.67;1.52;;;;;;;19.86;36.84;100878.16;5041140;28;20044;-65
2023/03/18 05:39:57;;;;;;;1.88;1.75;;;;;;;19.86;36.97;100881.63;5041300;28;20025;-65
2023/03/18 05:42:24;;;;;;;2.33;1.88;;;;;;;19.86;36.90;100884.25;5035747;28;20072;-65
2023/03/18 05:44:49;;;;;;;1.73;1.63;;;;;;;19.80;37.04;100884.97;5056848;28;20041;-65
2023/03/18 05:47:20;;;;;;;2.97;1.88;;;;;;;19.82;37.05;100890.09;5037860;28;20045;-65
2023/03/18 05:49:58;;;;;;;2.00;1.80;;;;;;;19.81;37.12;100896.38;5043715;28;20029;-66
2023/03/18 05:52:25;;;;;;;1.60;1.50;;;;;;;19.74;37.17;100893.59;5038947;28;20128;-65
2023/03/18 05:54:55;;;;;;;1.80;1.70;;;;;;;19.74;37.14;100901.53;5036934;28;22137;-65
2023/03/18 05:57:27;;;;;;;2.03;1.83;;;;;;;19.77;37.05;100905.66;5041322;28;20049;-65
2023/03/18 05:59:58;;;;;;;2.58;1.70;;;;;;;19.77;37.08;100906.47;5045282;28;20033;-66
2023/03/18 06:02:25;;;;;;;2.28;1.95;;;;;;;19.77;37.10;100910.94;5047724;28;20053;-66
2023/03/18 06:04:51;;;;;;;1.60;1.50;;;;;;;19.70;37.08;100900.25;5039826;28;20043;-66
2023/03/18 06:07:17;;;;;;;4.00;1.80;;;;;;;19.77;37.10;100908.31;5082431;28;20444;-66
2023/03/18 06:09:43;;;;;;;1.70;1.60;;;;;;;19.68;37.29;100922.56;5037012;28;20045;-65
2023/03/18 06:12:09;;;;;;;1.75;1.60;;;;;;;19.69;37.01;100903.88;5052776;28;20052;-65
2023/03/18 06:14:36;;;;;;;1.75;1.65;;;;;;;19.79;36.96;100911.59;5032990;28;20490;-66
2023/03/18 06:17:02;;;;;;;1.98;1.77;;;;;;;19.79;37.07;100917.69;5049079;28;20521;-66
2023/03/18 06:19:29;;;;;;;2.10;1.92;;;;;;;19.70;37.16;100916.09;5033756;28;20033;-66
2023/03/18 06:21:55;;;;;;;1.63;1.52;;;;;;;19.71;37.18;100920.38;5047225;28;20156;-65
2023/03/18 06:24:21;;;;;;;1.70;1.60;;;;;;;19.76;37.06;100919.88;5044622;28;20049;-66
2023/03/18 06:26:47;;;;;;;2.17;1.67;;;;;;;19.72;37.05;100923.84;5041346;28;20037;-66
2023/03/18 06:29:13;;;;;;;2.00;1.77;;;;;;;19.73;37.14;100925.47;5043895;28;20045;-65
2023/03/18 06:31:38;;;;;;;2.60;1.70;;;;;;;19.70;37.14;100937.22;5041895;28;20091;-65
2023/03/18 06:34:07;;;;;;;1.70;1.55;;;;;;;19.75;36.94;100937.53;5044910;28;20071;-66
2023/03/18 06:36:35;;;;;;;1.98;1.77;;;;;;;19.69;37.16;100937.41;5037160;28;20049;-65
2023/03/18 06:39:04;;;;;;;1.67;1.55;;;;;;;19.70;37.08;100937.22;5038966;28;20060;-65
2023/03/18 06:41:31;;;;;;;1.70;1.50;;;;;;;19.61;37.31;100940.94;5050167;28;20085;-66
2023/03/18 06:44:23;;;;;;;2.17;1.70;;;;;;;19.67;37.23;100939.41;5040184;28;20056;-66
2023/03/18 06:46:52;;;;;;;1.88;1.77;;;;;;;19.70;37.13;100944.34;5037141;28;20029;-65
2023/03/18 06:49:18;;;;;;;1.58;1.48;;;;;;;19.71;37.16;100938.06;5037489;28;20037;-66
2023/03/18 06:51:50;;;;;;;2.58;1.65;;;;;;;19.73;37.15;100939.50;5032520;28;20032;-65
2023/03/18 06:54:17;;;;;;;2.17;1.80;;;;;;;19.67;37.06;100953.44;5039537;28;20123;-67
2023/03/18 06:56:43;;;;;;;2.28;1.83;;;;;;;19.66;37.29;100959.72;5023219;28;20123;-66
2023/03/18 06:59:16;;;;;;;1.98;1.80;;;;;;;19.66;37.22;100965.00;5035735;28;20037;-65
2023/03/18 07:01:43;;;;;;;1.85;1.70;;;;;;;19.72;36.92;100963.47;5036483;28;20044;-66
2023/03/18 07:04:10;;;;;;;3.35;2.13;;;;;;;19.66;37.15;100964.19;5035246;28;20060;-66
2023/03/18 07:06:36;;;;;;;2.00;1.45;;;;;;;19.66;37.27;100969.47;5033094;28;20041;-66
2023/03/18 07:09:01;;;;;;;1.60;1.50;;;;;;;19.65;37.21;100971.28;5038708;28;20446;-67
2023/03/18 07:11:28;;;;;;;1.75;1.55;;;;;;;19.66;37.18;100972.94;5051377;28;20129;-66
2023/03/18 07:13:55;;;;;;;1.70;1.58;;;;;;;19.67;37.17;100968.47;5032998;28;20102;-65
2023/03/18 07:16:29;;;;;;;1.80;1.70;;;;;;;19.77;37.19;100975.19;5035072;28;20041;-66
2023/03/18 07:18:57;;;;;;;1.83;1.70;;;;;;;20.01;36.76;100976.00;5039940;28;20537;-66
2023/03/18 07:21:24;;;;;;;2.72;1.67;;;;;;;20.88;35.54;100979.00;5034303;28;20840;-67
2023/03/18 07:23:50;;;;;;;2.25;1.90;;;;;;;21.74;33.83;100975.59;5040737;28;20040;-68
2023/03/18 07:26:16;;;;;;;1.95;1.70;;;;;;;22.28;32.92;100977.75;5033235;28;20068;-68
2023/03/18 07:28:43;;;;;;;2.38;1.67;;;;;;;22.43;32.83;100974.97;5031876;28;20138;-68
2023/03/18 07:31:08;;;;;;;2.22;1.70;;;;;;;22.16;33.11;100948.25;5036348;28;20045;-68
2023/03/18 07:33:34;;;;;;;2.00;1.63;;;;;;;22.18;33.01;100979.88;5035583;28;20044;-68
2023/03/18 07:36:00;;;;;;;2.13;1.80;;;;;;;22.09;33.83;100978.41;5034636;28;20047;-68
2023/03/18 07:38:26;;;;;;;2.08;1.70;;;;;;;22.00;34.12;100977.66;5030067;28;20041;-68
2023/03/18 07:40:51;;;;;;;1.75;1.30;;;;;;;21.91;34.03;100982.28;5042967;28;20038;-68
2023/03/18 07:43:17;;;;;;;1.70;1.55;;;;;;;21.82;34.37;100985.25;5044467;28;20767;-68
2023/03/18 07:45:43;;;;;;;2.13;1.75;;;;;;;21.75;34.27;100987.00;5039430;28;20044;-68
2023/03/18 07:48:08;;;;;;;1.65;1.55;;;;;;;21.65;34.40;100996.06;5032136;28;20041;-68
2023/03/18 07:50:34;;;;;;;2.05;1.85;;;;;;;21.55;35.09;101011.47;5037977;28;20061;-68
2023/03/18 07:53:00;;;;;;;1.63;1.52;;;;;;;21.48;34.83;101013.22;5043480;28;20053;-68
2023/03/18 07:55:25;;;;;;;1.60;1.50;;;;;;;21.45;34.87;101020.72;5042518;28;20529;-68
2023/03/18 07:57:51;;;;;;;1.60;1.50;;;;;;;21.39;35.11;101017.81;5036242;28;20040;-68
2023/03/18 08:00:17;;;;;;;1.63;1.52;;;;;;;21.38;35.27;101025.94;5034689;28;20079;-68
2023/03/18 08:02:42;;;;;;;1.42;1.33;;;;;;;21.28;35.08;101028.03;5033407;28;20033;-67
2023/03/18 08:05:09;;;;;;;2.08;1.58;;;;;;;21.28;35.29;101030.69;5040403;28;20048;-68
2023/03/18 08:07:35;;;;;;;2.30;1.40;;;;;;;21.21;35.29;101027.94;5039371;28;20045;-68
2023/03/18 08:10:01;;;;;;;1.45;1.35;;;;;;;21.12;35.43;101026.38;5037662;28;20104;-68
2023/03/18 08:12:27;;;;;;;1.40;1.30;;;;;;;21.10;35.42;101038.97;5043031;28;20057;-69
2023/03/18 08:14:53;;;;;;;2.15;1.70;;;;;;;21.04;35.68;101021.19;5044634;28;20045;-68
2023/03/18 08:17:19;;;;;;;1.73;1.48;;;;;;;21.03;35.57;101030.13;5035728;28;20037;-68
2023/03/18 08:19:45;;;;;;;1.80;1.70;;;;;;;20.98;35.79;101030.66;5037838;28;20043;-68
2023/03/18 08:22:11;;;;;;;1.75;1.65;;;;;;;20.94;35.97;101036.50;5034329;28;20130;-68
2023/03/18 08:24:37;;;;;;;1.50;1.40;;;;;;;20.91;35.96;101034.22;5037690;28;20108;-67
2023/03/18 08:27:03;;;;;;;1.70;1.60;;;;;;;20.81;36.10;101037.94;5041432;28;20037;-70
2023/03/18 08:29:29;;;;;;;2.10;1.40;;;;;;;20.73;36.40;101031.91;5031368;28;20386;-70
2023/03/18 08:31:56;;;;;;;2.15;1.48;;;;;;;20.65;36.54;101029.38;5038003;28;20037;-67
2023/03/18 08:34:22;;;;;;;1.65;1.55;;;;;;;20.74;36.13;101025.63;5039478;28;20049;-68
2023/03/18 08:36:47;;;;;;;1.90;1.80;;;;;;;20.69;36.47;101025.34;5036615;28;20186;-68
2023/03/18 08:39:13;;;;;;;1.63;1.52;;;;;;;20.68;36.55;101029.00;5034718;28;20045;-67
2023/03/18 08:41:39;;;;;;;1.58;1.48;;;;;;;20.59;36.48;101030.06;5042263;28;20040;-68
2023/03/18 08:44:07;;;;;;;1.80;1.67;;;;;;;20.42;36.85;101037.31;5035987;28;20037;-67
2023/03/18 08:46:33;;;;;;;1.85;1.67;;;;;;;20.39;37.00;101040.31;5039477;28;20064;-68
2023/03/18 08:48:58;;;;;;;1.90;1.40;;;;;;;20.36;37.10;101038.00;5036641;28;20045;-68
2023/03/18 08:51:25;;;;;;;1.50;1.40;;;;;;;20.31;37.10;101035.09;5033352;28;20041;-68
2023/03/18 08:53:51;;;;;;;1.73;1.63;;;;;;;20.28;37.17;101044.19;5036007;28;20114;-68
2023/03/18 08:56:16;;;;;;;1.80;1.50;;;;;;;20.17;37.16;101034.03;5038831;28;20064;-68
2023/03/18 08:58:45;;;;;;;1.75;1.65;;;;;;;20.15;37.58;101038.69;5042281;28;20052;-68
2023/03/18 09:01:11;;;;;;;1.70;1.60;;;;;;;20.25;37.42;101038.44;5039405;28;20039;-67
2023/03/18 09:03:36;;;;;;;2.35;1.88;;;;;;;20.28;37.17;101041.53;5037597;28;20446;-68
2023/03/18 09:06:03;;;;;;;1.70;1.60;;;;;;;20.19;37.23;101042.59;5041963;28;20053;-68
2023/03/18 09:08:30;;;;;;;2.08;1.67;;;;;;;20.17;37.46;101044.59;5044683;28;20447;-68
2023/03/18 09:10:56;;;;;;;1.63;1.52;;;;;;;20.10;37.44;101031.25;5040307;28;20076;-68
2023/03/18 09:13:23;;;;;;;1.98;1.83;;;;;;;20.22;37.44;101043.06;5038910;28;20101;-68
2023/03/18 09:15:49;;;;;;;2.03;1.70;;;;;;;20.19;37.47;101045.25;5038015;28;20063;-68
2023/03/18 09:18:17;;;;;;;1.73;1.63;;;;;;;20.16;37.33;101043.78;5037211;28;20538;-68
2023/03/18 09:20:44;;;;;;;1.80;1.67;;;;;;;20.24;37.35;101048.19;5043168;28;20033;-68
2023/03/18 09:23:11;;;;;;;1.67;1.58;;;;;;;20.26;37.20;101040.88;5041281;28;20044;-68
2023/03/18 09:25:38;;;;;;;2.67;1.65;;;;;;;20.23;37.31;101033.31;5035423;28;20621;-67
2023/03/18 09:28:03;;;;;;;2.38;1.65;;;;;;;20.11;37.58;101025.00;5033548;28;20060;-68
2023/03/18 09:30:30;;;;;;;1.85;1.75;;;;;;;20.18;37.51;101036.50;5030270;28;20038;-67
2023/03/18 09:32:56;;;;;;;2.05;1.90;;;;;;;20.28;37.37;101028.31;5037230;28;20086;-68
2023/03/18 09:35:23;;;;;;;2.75;2.08;;;;;;;20.69;36.65;101034.13;5034041;28;20041;-67
2023/03/18 09:37:48;;;;;;;3.13;2.20;;;;;;;21.12;36.21;101034.31;5032678;28;20058;-67
2023/03/18 09:40:24;;;;;;;1.83;1.67;;;;;;;21.47;35.52;101040.72;5036006;28;20044;-68
2023/03/18 09:43:27;;;;;;;2.53;1.98;;;;;;;21.69;35.15;101047.69;5041145;28;20048;-67
2023/03/18 09:46:05;;;;;;;2.45;2.15;;;;;;;21.70;35.28;101059.13;5037947;28;20040;-67
2023/03/18 09:49:02;;;;;;;2.88;1.95;;;;;;;21.66;35.36;101052.56;5037408;28;20048;-67
2023/03/18 09:51:45;;;;;;;2.92;2.17;;;;;;;21.60;35.42;101059.44;5033723;28;20654;-68
2023/03/18 09:54:25;;;;;;;3.83;2.45;;;;;;;21.57;35.61;101056.34;5034308;28;20040;-68
2023/03/18 09:56:52;;;;;;;3.00;1.95;;;;;;;21.53;35.65;101063.81;5036201;28;20056;-67
2023/03/18 09:59:23;;;;;;;2.78;2.00;;;;;;;21.47;35.94;101064.56;5035174;28;20041;-68
2023/03/18 10:01:53;;;;;;;2.70;2.00;;;;;;;21.44;35.91;101064.09;5039439;28;20032;-68
2023/03/18 10:04:32;;;;;;;4.20;2.53;;;;;;;21.39;35.85;101069.97;5040144;28;20037;-68
2023/03/18 10:07:13;;;;;;;2.53;2.33;;;;;;;21.40;35.99;101072.44;5037391;28;20362;-68
2023/03/18 10:09:43;;;;;;;3.38;2.33;;;;;;;21.31;36.54;101083.28;5037805;28;20505;-72
2023/03/18 10:12:20;;;;;;;;;;;;;;;21.34;36.33;101085.56;5034693;28;20104;-68
2023/03/18 10:15:15;;;;;;;2.60;2.10;;;;;;;21.30;36.36;101084.28;5034782;28;20626;-67
2023/03/18 10:17:51;;;;;;;3.03;2.50;;;;;;;21.23;36.54;101089.47;5033520;28;20041;-67
2023/03/18 10:20:19;;;;;;;3.17;2.30;;;;;;;21.22;36.83;101092.31;5038956;28;20035;-68
2023/03/18 10:23:03;;;;;;;2.67;2.33;;;;;;;21.17;36.63;101090.19;5040127;28;20043;-68
2023/03/18 10:25:42;;;;;;;3.10;2.13;;;;;;;21.13;36.80;101089.75;5036119;28;20124;-68
2023/03/18 10:28:34;;;;;;;4.03;2.78;;;;;;;21.12;36.92;101096.03;5029564;28;20040;-67
2023/03/18 10:31:13;;;;;;;3.13;2.53;;;;;;;21.07;36.75;101093.13;5032606;28;20556;-68
2023/03/18 10:34:01;;;;;;;3.33;2.20;;;;;;;21.00;37.05;101091.38;5029163;28;20037;-68
2023/03/18 10:36:34;;;;;;;3.72;2.10;;;;;;;21.00;37.16;101092.19;5034983;28;20398;-68
2023/03/18 10:39:02;;;;;;;2.53;2.10;;;;;;;21.00;37.08;101094.84;5033135;28;20037;-67
2023/03/18 10:41:35;;;;;;;3.03;2.40;;;;;;;20.94;37.31;101100.03;5037804;28;20184;-68
2023/03/18 10:44:10;;;;;;;3.63;2.42;;;;;;;20.86;37.31;101085.06;5036607;28;20098;-69
2023/03/18 10:46:37;;;;;;;3.70;2.63;;;;;;;20.85;37.32;101099.31;5040732;28;20045;-69
2023/03/18 10:49:19;;;;;;;2.78;2.28;;;;;;;20.80;37.42;101105.13;5033500;28;20667;-69
2023/03/18 10:52:01;;;;;;;2.92;2.20;;;;;;;20.70;37.50;101103.75;5037114;28;20478;-70
2023/03/18 10:54:36;;;;;;;3.80;2.38;;;;;;;20.68;37.65;101095.97;5036521;28;20043;-69
2023/03/18 10:57:01;;;;;;;2.63;2.00;;;;;;;20.67;37.52;101088.22;5036286;28;20100;-69
2023/03/18 10:59:27;;;;;;;2.88;2.47;;;;;;;20.65;37.58;101099.00;5041076;28;20064;-69
2023/03/18 11:02:19;;;;;;;3.47;2.60;;;;;;;20.64;37.81;101099.97;5040321;28;20841;-69
2023/03/18 11:04:54;;;;;;;3.42;2.40;;;;;;;20.70;37.37;101095.81;5041091;28;20049;-69
2023/03/18 11:07:25;;;;;;;2.67;2.35;;;;;;;20.71;37.47;101102.75;5038372;28;20069;-69
2023/03/18 11:09:53;;;;;;;3.03;2.45;;;;;;;20.56;37.73;101089.47;5040654;28;20546;-69
2023/03/18 11:12:26;;;;;;;2.92;2.17;;;;;;;20.61;37.61;101097.69;5041328;28;20050;-69
2023/03/18 11:14:52;;;;;;;4.20;2.25;;;;;;;20.64;37.36;101092.03;5031636;28;20049;-68
2023/03/18 11:17:26;;;;;;;2.38;2.17;;;;;;;20.61;37.58;101107.44;5055921;28;20040;-68
2023/03/18 11:20:30;;;;;;;3.45;2.28;;;;;;;20.57;37.79;101103.50;5038397;28;20315;-68
2023/03/18 11:23:11;;;;;;;2.58;2.22;;;;;;;20.57;37.78;101109.63;5040064;28;20052;-69
2023/03/18 11:25:37;;;;;;;2.88;2.17;;;;;;;20.60;37.65;101108.44;5035594;28;20033;-68
2023/03/18 11:28:05;;;;;;;2.38;2.17;;;;;;;20.72;37.71;101107.03;5035934;28;20053;-68
2023/03/18 11:30:51;;;;;;;2.65;2.30;;;;;;;20.98;37.34;101112.72;5033255;28;20044;-70
2023/03/18 11:33:18;;;;;;;2.33;2.13;;;;;;;20.98;37.40;101120.66;5037334;28;20041;-69